createdAt,value
2022-09-26T00:02:01.541Z,17.64
2022-09-26T00:07:04.387Z,17.86
2022-09-26T00:12:11.258Z,17.94
2022-09-26T00:17:09.849Z,17.66
2022-09-26T00:22:10.054Z,17.76
2022-09-26T00:27:21.663Z,17.64
2022-09-26T00:32:22.061Z,17.69
2022-09-26T00:37:20.753Z,17.98
2022-09-26T00:42:23.358Z,18.23
2022-09-26T00:47:29.234Z,18.61
2022-09-26T00:52:31.909Z,18.45
2022-09-26T00:57:33.228Z,18.50
2022-09-26T01:02:43.103Z,17.83
2022-09-26T01:07:55.970Z,17.51
2022-09-26T01:13:11.160Z,17.31
2022-09-26T01:18:11.820Z,17.59
2022-09-26T01:23:41.806Z,18.04
2022-09-26T01:28:49.963Z,18.41
2022-09-26T01:34:06.181Z,18.65
2022-09-26T01:39:15.631Z,18.22
2022-09-26T01:44:19.965Z,17.84
2022-09-26T01:49:21.462Z,17.44
2022-09-26T01:54:26.890Z,17.40
2022-09-26T01:59:29.585Z,17.30
2022-09-26T02:04:46.092Z,17.14
2022-09-26T02:09:53.011Z,16.88
2022-09-26T02:15:13.407Z,17.33
2022-09-26T02:20:27.734Z,17.32
2022-09-26T02:25:41.242Z,17.30
2022-09-26T02:30:47.255Z,17.27
2022-09-26T02:35:56.993Z,17.19
2022-09-26T02:41:06.516Z,16.97
2022-09-26T02:46:09.230Z,16.82
2022-09-26T02:51:42.224Z,16.61
2022-09-26T02:56:45.858Z,16.69
2022-09-26T03:01:48.960Z,16.54
2022-09-26T03:07:00.655Z,16.62
2022-09-26T03:12:01.612Z,16.68
2022-09-26T03:17:01.260Z,16.61
2022-09-26T03:22:13.035Z,16.55
2022-09-26T03:27:11.944Z,16.85
2022-09-26T03:32:10.023Z,16.73
2022-09-26T03:37:11.000Z,16.97
2022-09-26T03:42:23.025Z,16.85
2022-09-26T03:47:33.073Z,17.02
2022-09-26T03:52:42.120Z,17.19
2022-09-26T03:58:04.166Z,16.84
2022-09-26T04:03:14.954Z,16.33
2022-09-26T04:08:22.997Z,16.11
2022-09-26T04:13:49.534Z,16.20
2022-09-26T04:18:46.702Z,16.57
2022-09-26T04:30:33.396Z,16.66
2022-09-26T04:35:17.050Z,16.57
2022-09-26T04:40:56.159Z,16.77
2022-09-26T04:46:31.379Z,16.58
2022-09-26T04:51:54.534Z,16.97
2022-09-26T04:57:18.756Z,16.79
2022-09-26T05:02:53.040Z,16.89
2022-09-26T05:13:24.534Z,17.17
2022-09-26T05:18:49.570Z,16.95
2022-09-26T05:24:16.193Z,17.00
2022-09-26T05:35:12.890Z,17.03
2022-09-26T05:40:37.165Z,16.97
2022-09-26T05:46:10.811Z,17.16
2022-09-26T06:09:39.976Z,17.89
2022-09-26T06:41:04.712Z,18.71
2022-09-26T07:13:34.705Z,19.05
2022-09-26T07:38:18.687Z,19.72
2022-09-26T07:56:33.540Z,20.16
2022-09-26T08:08:02.803Z,20.66
2022-09-26T08:20:02.634Z,20.84
2022-09-26T08:43:05.210Z,21.35
2022-09-26T08:55:46.675Z,21.29
2022-09-26T09:07:53.912Z,21.67
2022-09-26T09:14:43.029Z,21.80
2022-09-26T09:44:03.382Z,22.00
2022-09-26T09:50:05.792Z,21.97
2022-09-26T10:21:51.278Z,22.61
2022-09-26T10:59:13.198Z,23.44
2022-09-26T11:04:15.409Z,23.60
2022-09-26T11:09:50.956Z,23.70
2022-09-26T11:15:12.124Z,23.84
2022-09-26T11:20:14.570Z,24.15
2022-09-26T11:25:24.772Z,24.07
2022-09-26T11:30:41.894Z,24.14
2022-09-26T11:35:45.853Z,24.38
2022-09-26T11:40:54.837Z,24.24
2022-09-26T11:46:16.216Z,24.12
2022-09-26T11:51:39.887Z,24.03
2022-09-26T11:57:02.314Z,24.00
2022-09-26T12:02:08.725Z,24.01
2022-09-26T12:12:44.314Z,24.02
2022-09-26T12:17:51.984Z,24.06
2022-09-26T12:22:56.348Z,24.21
2022-09-26T12:27:59.583Z,24.40
2022-09-26T12:33:17.537Z,24.47
2022-09-26T12:38:35.026Z,24.56
2022-09-26T12:43:47.692Z,24.48
2022-09-26T12:49:07.239Z,24.36
2022-09-26T12:54:12.455Z,24.25
2022-09-26T12:59:20.815Z,24.18
2022-09-26T13:04:37.386Z,24.08
2022-09-26T13:09:49.506Z,24.11
2022-09-26T13:15:02.161Z,24.13
2022-09-26T13:20:05.489Z,24.12
2022-09-26T13:25:07.506Z,24.08
2022-09-26T13:30:06.008Z,24.06
2022-09-26T13:40:34.346Z,24.03
2022-09-26T13:45:38.839Z,23.92
2022-09-26T13:50:40.796Z,23.94
2022-09-26T13:55:37.460Z,24.12
2022-09-26T14:00:48.894Z,24.52
2022-09-26T14:05:49.399Z,24.84
2022-09-26T14:10:52.844Z,24.87
2022-09-26T14:16:05.493Z,25.11
2022-09-26T14:21:08.118Z,25.33
2022-09-26T14:26:06.274Z,25.25
2022-09-26T14:31:34.378Z,25.19
2022-09-26T14:36:36.395Z,25.14
2022-09-26T14:41:34.565Z,25.20
2022-09-26T14:46:33.984Z,25.28
2022-09-26T14:51:33.029Z,25.34
2022-09-26T14:56:40.262Z,25.48
2022-09-26T15:01:41.635Z,25.71
2022-09-26T15:06:41.597Z,25.76
2022-09-26T15:11:47.871Z,25.66
2022-09-26T15:16:48.467Z,25.52
2022-09-26T15:21:50.907Z,25.25
2022-09-26T15:26:48.973Z,25.28
2022-09-26T15:31:48.705Z,25.22
2022-09-26T15:36:50.870Z,25.19
2022-09-26T15:42:16.528Z,25.19
2022-09-26T15:47:25.321Z,25.12
2022-09-26T15:52:23.970Z,25.10
2022-09-26T15:57:22.065Z,24.99
2022-09-26T16:02:22.417Z,24.85
2022-09-26T16:07:30.355Z,24.71
2022-09-26T16:12:35.343Z,24.59
2022-09-26T16:17:49.557Z,24.53
2022-09-26T16:22:51.207Z,24.47
2022-09-26T16:27:50.388Z,24.40
2022-09-26T16:32:50.752Z,24.26
2022-09-26T16:37:58.957Z,24.30
2022-09-26T16:43:03.208Z,24.25
2022-09-26T16:48:05.651Z,24.21
2022-09-26T16:53:13.086Z,24.15
2022-09-26T16:58:22.796Z,24.14
2022-09-26T17:03:38.111Z,24.11
2022-09-26T17:08:36.922Z,24.07
2022-09-26T17:13:35.620Z,23.95
2022-09-26T17:18:35.575Z,23.89
2022-09-26T17:23:41.079Z,23.82
2022-09-26T17:28:42.017Z,23.68
2022-09-26T17:33:41.538Z,23.78
2022-09-26T17:38:42.744Z,23.68
2022-09-26T17:43:40.311Z,23.53
2022-09-26T17:48:37.380Z,23.25
2022-09-26T17:53:38.946Z,23.37
2022-09-26T17:58:37.303Z,23.16
2022-09-26T18:03:37.530Z,23.06
2022-09-26T18:08:36.309Z,23.24
2022-09-26T18:13:38.750Z,23.38
2022-09-26T18:18:36.305Z,23.37
2022-09-26T18:23:41.038Z,23.38
2022-09-26T18:28:40.898Z,23.44
2022-09-26T18:33:38.276Z,23.40
2022-09-26T18:38:35.378Z,23.50
2022-09-26T18:43:41.292Z,23.41
2022-09-26T18:48:38.815Z,23.28
2022-09-26T18:53:43.650Z,23.22
2022-09-26T18:58:40.428Z,23.16
2022-09-26T19:03:41.591Z,23.10
2022-09-26T19:08:40.807Z,23.03
2022-09-26T19:13:42.254Z,22.97
2022-09-26T19:18:42.431Z,23.02
2022-09-26T19:23:42.192Z,22.86
2022-09-26T19:28:39.147Z,22.74
2022-09-26T19:33:37.754Z,22.79
2022-09-26T19:38:34.607Z,22.73
2022-09-26T19:43:32.135Z,22.72
2022-09-26T19:48:44.943Z,22.61
2022-09-26T19:53:43.797Z,22.70
2022-09-26T19:58:42.272Z,22.77
2022-09-26T20:03:39.993Z,22.76
2022-09-26T20:08:37.009Z,22.95
2022-09-26T20:13:57.011Z,23.08
2022-09-26T20:18:55.377Z,22.87
2022-09-26T20:23:52.434Z,22.82
2022-09-26T20:28:52.220Z,23.00
2022-09-26T20:33:52.511Z,23.07
2022-09-26T20:38:57.442Z,22.95
2022-09-26T20:43:58.130Z,22.68
2022-09-26T20:48:56.051Z,22.52
2022-09-26T20:53:55.000Z,22.54
2022-09-26T20:58:51.960Z,22.74
2022-09-26T21:03:50.203Z,22.69
2022-09-26T21:08:47.463Z,22.88
2022-09-26T21:13:45.224Z,22.80
2022-09-26T21:18:43.897Z,22.96
2022-09-26T21:23:41.476Z,23.04
2022-09-26T21:28:38.491Z,23.13
2022-09-26T21:33:36.451Z,22.95
2022-09-26T21:38:33.450Z,22.84
2022-09-26T21:43:35.920Z,22.93
2022-09-26T21:48:36.532Z,22.88
2022-09-26T21:53:39.275Z,22.84
2022-09-26T21:58:38.287Z,22.80
2022-09-26T22:03:35.465Z,22.84
2022-09-26T22:08:37.312Z,22.74
2022-09-26T22:13:35.544Z,22.53
2022-09-26T22:18:34.387Z,22.21
2022-09-26T22:23:33.566Z,22.25
2022-09-26T22:28:31.130Z,22.19
2022-09-26T22:33:35.624Z,21.89
2022-09-26T22:38:36.719Z,21.93
2022-09-26T22:43:36.904Z,21.57
2022-09-26T22:48:35.976Z,21.83
2022-09-26T22:53:33.813Z,21.37
2022-09-26T22:58:36.403Z,20.93
2022-09-26T23:03:34.816Z,20.84
2022-09-26T23:08:31.891Z,20.79
2022-09-26T23:13:32.400Z,20.74
2022-09-26T23:18:29.198Z,20.60
2022-09-26T23:23:26.628Z,20.95
2022-09-26T23:28:25.645Z,20.87
2022-09-26T23:33:25.312Z,21.02
2022-09-26T23:38:22.270Z,20.84
2022-09-26T23:43:19.853Z,20.69
2022-09-26T23:48:16.968Z,20.63
2022-09-26T23:53:15.776Z,20.48
2022-09-26T23:58:16.566Z,20.29
